Time;durP1;ratioP1;P1;durP2;ratioP2;P2;SDS_P1;SDS_P2;PMS_P1;PMS_P2;Temp;Humidity;BMP_temperature;BMP_pressure;BME280_temperature;BME280_humidity;BME280_pressure;Samples;Min_cycle;Max_cycle;Signal;HPM_P1;HPM_P2
2021/01/28 00:00:55;;;;;;;5.03;3.50;;;3.30;85.00;;;3.66;69.87;97322.41;4944883;29;20052;-36
2021/01/28 00:03:22;;;;;;;5.50;3.53;;;3.30;84.90;;;3.65;69.58;97319.91;4944781;29;20248;-36
2021/01/28 00:05:50;;;;;;;4.37;3.40;;;3.30;84.80;;;3.65;69.42;97314.66;4944279;29;20054;-36
2021/01/28 00:08:17;;;;;;;3.60;2.97;;;3.30;84.70;;;3.65;69.30;97320.75;4944717;29;20043;-36
2021/01/28 00:10:45;;;;;;;4.47;3.03;;;3.40;84.70;;;3.65;69.71;97314.66;4944096;29;20056;-36
2021/01/28 00:13:13;;;;;;;4.50;2.97;;;3.30;84.60;;;3.64;69.75;97310.34;4944703;29;20244;-36
2021/01/28 00:15:42;;;;;;;4.90;3.10;;;3.40;84.50;;;3.65;69.56;97310.22;4944097;29;20058;-36
2021/01/28 00:18:13;;;;;;;5.17;2.97;;;3.40;84.50;;;3.65;69.50;97302.31;4944587;29;20052;-36
2021/01/28 00:20:45;;;;;;;6.03;2.90;;;3.30;84.40;;;3.65;69.54;97307.59;4943717;29;20047;-36
2021/01/28 00:23:14;;;;;;;4.20;2.83;;;3.40;84.50;;;3.64;69.67;97295.38;4944709;29;20051;-36
2021/01/28 00:25:41;;;;;;;4.90;3.27;;;3.30;84.50;;;3.64;69.45;97303.25;4944144;29;20055;-36
2021/01/28 00:28:14;;;;;;;4.87;2.60;;;3.30;84.70;;;3.64;69.67;97295.38;4943857;29;20055;-36
2021/01/28 00:30:47;;;;;;;6.13;3.83;;;3.30;84.60;;;3.66;69.77;97305.78;4944409;29;20051;-36
2021/01/28 00:33:23;;;;;;;4.30;2.95;;;3.40;84.60;;;3.67;69.46;97308.28;4944602;29;20511;-36
2021/01/28 00:35:54;;;;;;;4.13;2.33;;;3.40;84.60;;;3.67;69.36;97305.66;4943894;29;20052;-36
2021/01/28 00:38:35;;;;;;;3.47;3.00;;;3.30;84.50;;;3.70;69.67;97315.09;4944600;29;20051;-36
2021/01/28 00:41:06;;;;;;;4.10;2.60;;;3.40;84.70;;;3.69;69.39;97297.63;4944489;29;20058;-36
2021/01/28 00:43:34;;;;;;;3.37;2.27;;;3.40;84.70;;;3.69;69.46;97297.63;4944460;29;20059;-36
2021/01/28 00:46:03;;;;;;;2.57;2.00;;;3.40;84.60;;;3.69;69.80;97287.09;4943410;29;20361;-36
2021/01/28 00:48:30;;;;;;;3.57;2.33;;;3.40;84.70;;;3.70;69.31;97272.97;4946635;29;20089;-36
2021/01/28 00:51:01;;;;;;;2.70;1.63;;;3.40;84.60;;;3.70;69.79;97271.19;4948136;29;20152;-36
2021/01/28 00:53:29;;;;;;;2.83;1.70;;;3.40;84.80;;;3.69;69.68;97266.03;4930828;29;20054;-36
2021/01/28 00:55:57;;;;;;;2.23;1.40;;;3.40;84.70;;;3.69;69.71;97263.41;4946674;29;20058;-36
2021/01/28 00:58:33;;;;;;;1.60;1.27;;;3.40;84.60;;;3.70;69.50;97260.66;4931197;29;20067;-36
2021/01/28 01:01:01;;;;;;;2.30;1.43;;;3.40;84.70;;;3.69;69.37;97237.91;4936091;29;20051;-36
2021/01/28 01:03:30;;;;;;;2.33;1.30;;;3.40;84.60;;;3.67;69.62;97253.00;4947263;29;20047;-36
2021/01/28 01:05:57;;;;;;;1.77;1.20;;;3.40;84.50;;;3.69;69.92;97239.72;4930110;29;20062;-36
2021/01/28 01:08:32;;;;;;;3.40;1.87;;;3.40;84.40;;;3.71;69.56;97240.41;4930175;29;20055;-36
2021/01/28 01:11:20;;;;;;;2.57;1.20;;;3.50;84.50;;;3.72;69.67;97249.97;4947226;29;20066;-36
2021/01/28 01:13:52;;;;;;;2.67;1.37;;;3.50;84.30;;;3.72;69.69;97245.56;4930513;29;20047;-36
2021/01/28 01:16:28;;;;;;;2.87;1.17;;;3.50;84.30;;;3.72;69.83;97245.56;4947107;29;20047;-36
2021/01/28 01:19:11;;;;;;;2.17;1.90;;;3.50;84.30;;;3.76;69.79;97248.75;4947605;29;20047;-36
2021/01/28 01:21:54;;;;;;;1.80;1.02;;;3.50;84.30;;;3.77;69.63;97254.88;4930860;29;20059;-36
2021/01/28 01:24:24;;;;;;;1.83;1.37;;;3.50;84.30;;;3.76;69.73;97254.03;4947113;29;20062;-36
2021/01/28 01:26:52;;;;;;;3.10;1.20;;;3.50;84.20;;;3.76;70.04;97254.03;4929660;29;20052;-36
2021/01/28 01:29:21;;;;;;;1.93;1.27;;;3.50;84.40;;;3.78;69.72;97248.63;4946942;29;20055;-36
2021/01/28 01:32:06;;;;;;;;;;;3.50;84.20;;;3.76;69.52;97240.84;4930482;29;20058;-36
2021/01/28 01:34:44;;;;;;;2.07;1.10;;;3.50;84.40;;;3.79;69.46;97242.41;4929579;29;19945;-36
2021/01/28 01:37:12;;;;;;;3.70;1.40;;;3.50;84.40;;;3.78;69.73;97233.69;4947149;29;20102;-36
2021/01/28 01:39:46;;;;;;;1.90;0.98;;;3.50;84.30;;;3.79;69.51;97237.97;4929948;29;20055;-36
2021/01/28 01:42:14;;;;;;;2.07;1.30;;;3.50;84.10;;;3.78;69.79;97228.44;4929786;29;20055;-36
2021/01/28 01:44:45;;;;;;;2.00;1.30;;;3.50;84.10;;;3.76;69.52;97222.41;4929328;29;20047;-36
2021/01/28 01:47:38;;;;;;;2.53;1.60;;;3.50;84.10;;;3.76;69.89;97225.06;4929914;29;20055;-36
2021/01/28 01:50:53;;;;;;;1.87;1.27;;;3.50;84.30;;;3.77;69.43;97221.47;4929957;29;20388;-36
2021/01/28 01:53:34;;;;;;;3.50;1.50;;;3.50;84.30;;;3.79;69.93;97211.66;4945510;29;20051;-36
2021/01/28 01:56:16;;;;;;;2.37;1.40;;;3.60;84.30;;;3.80;70.01;97200.16;4928958;29;20051;-36
2021/01/28 01:59:06;;;;;;;2.47;1.13;;;3.60;84.20;;;3.80;69.93;97205.44;4928384;29;20052;-36
2021/01/28 02:02:13;;;;;;;1.77;1.37;;;3.60;84.20;;;3.83;70.09;97180.63;4911879;29;20285;-36
2021/01/28 02:05:14;;;;;;;1.80;0.90;;;3.60;84.10;;;3.84;70.10;97172.59;4951525;29;20057;-36
2021/01/28 02:08:04;;;;;;;3.17;0.97;;;3.60;84.10;;;3.87;69.92;97176.75;4945865;29;20367;-36
2021/01/28 02:10:51;;;;;;;1.23;1.03;;;3.60;84.10;;;3.87;69.79;97174.94;4946958;29;20054;-36
2021/01/28 02:13:47;;;;;;;1.40;1.00;;;3.60;83.90;;;3.88;70.12;97171.38;4917554;29;20059;-36
2021/01/28 02:16:38;;;;;;;2.03;1.10;;;3.60;84.00;;;3.90;69.79;97165.97;4928637;29;20051;-36
2021/01/28 02:19:51;;;;;;;1.57;1.10;;;3.60;83.90;;;3.90;69.51;97168.63;4928237;29;20064;-36
2021/01/28 02:22:55;;;;;;;1.47;1.00;;;3.70;84.20;;;3.91;69.72;97162.38;4929968;29;20054;-36
2021/01/28 02:25:35;;;;;;;0.83;0.70;;;3.70;84.20;;;3.93;69.82;97158.63;4933982;29;20052;-36
2021/01/28 02:28:11;;;;;;;1.37;1.10;;;3.70;84.00;;;3.92;69.73;97151.69;4936635;29;20051;-36
2021/01/28 02:30:47;;;;;;;2.13;0.80;;;3.70;84.00;;;3.92;69.40;97138.53;4945615;29;20054;-36
2021/01/28 02:33:51;;;;;;;1.03;0.90;;;3.70;84.00;;;3.96;69.55;97133.84;4952527;29;20054;-36
2021/01/28 02:36:44;;;;;;;2.00;0.70;;;3.70;83.80;;;3.94;69.70;97133.97;4952298;29;20351;-36
2021/01/28 02:39:39;;;;;;;2.20;0.70;;;3.70;83.80;;;3.95;69.47;97126.91;4935008;29;20065;-36
2021/01/28 02:42:23;;;;;;;1.83;0.90;;;3.70;83.80;;;3.97;69.62;97130.22;4944382;29;20055;-36
2021/01/28 02:44:58;;;;;;;1.30;0.90;;;3.70;83.70;;;3.98;69.70;97131.09;4944195;29;20063;-36
2021/01/28 02:47:54;;;;;;;0.67;0.50;;;3.70;83.70;;;4.00;69.94;97137.88;4947916;29;20260;-36
2021/01/28 02:50:44;;;;;;;1.50;0.80;;;3.80;83.60;;;3.99;69.90;97130.94;4938943;29;20056;-36
2021/01/28 02:53:14;;;;;;;1.67;0.50;;;3.80;83.60;;;3.99;69.49;97125.66;4944905;29;20245;-36
2021/01/28 02:55:46;;;;;;;1.90;0.83;;;3.80;83.60;;;4.01;69.20;97125.53;4944183;29;20051;-36
2021/01/28 02:58:13;;;;;;;2.00;0.73;;;3.80;83.50;;;4.02;69.80;97125.41;4944452;29;20066;-36
2021/01/28 03:00:52;;;;;;;3.17;0.80;;;3.80;83.50;;;4.04;70.15;97115.56;4944232;29;20055;-36
2021/01/28 03:03:19;;;;;;;1.23;0.80;;;3.80;83.40;;;4.01;69.72;97107.91;4946011;29;20054;-36
2021/01/28 03:05:51;;;;;;;1.30;1.20;;;3.80;83.30;;;4.03;69.34;97092.84;4945043;29;20353;-36
2021/01/28 03:08:22;;;;;;;0.33;0.33;;;3.80;83.30;;;4.06;69.75;97099.63;4944544;29;20047;-36
2021/01/28 03:11:06;;;;;;;0.43;0.30;;;3.90;83.40;;;4.08;69.85;97092.44;4944047;29;20055;-36
2021/01/28 03:13:34;;;;;;;0.70;0.50;;;3.90;83.40;;;4.08;69.74;97092.44;4946019;29;20219;-36
2021/01/28 03:16:12;;;;;;;0.80;0.60;;;3.90;83.30;;;4.08;70.05;97079.25;4943897;29;20046;-36
2021/01/28 03:18:47;;;;;;;0.43;0.43;;;3.90;83.30;;;4.08;69.69;97087.16;4944346;29;20055;-36
2021/01/28 03:21:14;;;;;;;1.30;0.30;;;3.90;83.30;;;4.08;69.93;97085.34;4944222;29;20059;-36
2021/01/28 03:23:54;;;;;;;0.40;0.40;;;3.90;83.40;;;4.07;69.88;97081.06;4944007;29;20244;-36
2021/01/28 03:26:42;;;;;;;0.30;0.30;;;3.90;83.50;;;4.09;69.97;97076.50;4944677;29;20060;-36
2021/01/28 03:29:13;;;;;;;0.57;0.40;;;3.90;83.50;;;4.09;69.76;97079.13;4943810;29;20043;-36
2021/01/28 03:31:42;;;;;;;0.70;0.50;;;4.00;83.50;;;4.09;70.24;97075.63;4943706;29;20052;-36
2021/01/28 03:34:16;;;;;;;0.40;0.40;;;4.00;83.40;;;4.11;69.95;97078.97;4943752;29;20064;-36
2021/01/28 03:36:43;;;;;;;0.87;0.50;;;4.00;83.50;;;4.10;70.30;97070.25;4943607;29;20254;-36
2021/01/28 03:39:17;;;;;;;0.93;0.50;;;4.00;83.40;;;4.12;69.62;97065.66;4943751;29;20051;-36
2021/01/28 03:41:44;;;;;;;1.03;0.67;;;4.00;83.40;;;4.14;69.69;97052.38;4943687;29;20056;-36
2021/01/28 03:44:11;;;;;;;0.80;0.50;;;4.00;83.50;;;4.16;69.69;97047.78;4945267;29;20256;-36
2021/01/28 03:46:43;;;;;;;1.13;0.57;;;4.00;83.50;;;4.18;69.69;97037.13;4943108;29;20055;-36
2021/01/28 03:49:11;;;;;;;0.53;0.50;;;4.00;83.40;;;4.19;69.56;97030.88;4943770;29;20345;-36
2021/01/28 03:51:52;;;;;;;0.93;0.57;;;4.10;83.50;;;4.21;69.97;97018.44;4943871;29;20052;-36
2021/01/28 03:54:19;;;;;;;0.57;0.50;;;4.00;83.50;;;4.22;69.75;97012.16;4945147;29;20366;-36
2021/01/28 03:56:54;;;;;;;0.30;0.30;;;4.00;83.50;;;4.23;69.98;97005.94;4943049;29;20234;-36
2021/01/28 03:59:21;;;;;;;0.50;0.50;;;4.10;83.60;;;4.26;69.98;97013.56;4943415;29;20249;-36
2021/01/28 04:02:07;;;;;;;0.70;0.67;;;4.10;83.50;;;4.26;69.67;97017.00;4948369;29;20054;-36
2021/01/28 04:04:53;;;;;;;0.50;0.40;;;4.00;83.60;;;4.24;69.82;97000.50;4946128;29;20066;-36
2021/01/28 04:07:39;;;;;;;0.60;0.60;;;4.00;83.90;;;4.24;69.97;97008.41;4950239;29;20054;-36
2021/01/28 04:10:11;;;;;;;0.33;0.30;;;4.00;83.80;;;4.25;69.73;97001.38;4943571;29;20058;-36
2021/01/28 04:12:43;;;;;;;1.17;0.77;;;4.00;83.90;;;4.27;70.12;96988.88;4943272;29;20049;-36
2021/01/28 04:15:32;;;;;;;0.97;0.60;;;4.10;83.90;;;4.28;69.53;96978.19;4940525;29;20059;-36
2021/01/28 04:18:01;;;;;;;0.90;0.77;;;4.00;83.70;;;4.28;70.05;96962.38;4943142;29;20372;-36
2021/01/28 04:20:37;;;;;;;1.20;1.00;;;4.10;83.70;;;4.27;69.51;96963.34;4943415;29;20063;-36
2021/01/28 04:23:09;;;;;;;0.97;0.90;;;4.10;83.60;;;4.31;69.75;96953.38;4947848;29;20055;-36
2021/01/28 04:25:55;;;;;;;1.97;1.20;;;4.10;83.50;;;4.33;69.55;96944.34;4961971;28;20353;-36
2021/01/28 04:28:25;;;;;;;3.00;1.40;;;4.10;83.40;;;4.32;69.80;96941.84;4947001;29;20059;-36
2021/01/28 04:31:15;;;;;;;2.20;1.40;;;4.10;83.30;;;4.31;69.42;96935.75;4946825;29;20062;-36
2021/01/28 04:33:43;;;;;;;2.00;1.23;;;4.10;83.40;;;4.31;69.40;96927.03;4947223;29;20349;-36
2021/01/28 04:36:27;;;;;;;2.53;1.77;;;4.00;83.50;;;4.32;69.45;96926.03;4946567;29;20052;-36
2021/01/28 04:39:13;;;;;;;1.73;1.30;;;4.10;83.50;;;4.33;69.80;96915.38;4965386;28;20379;-36
2021/01/28 04:41:43;;;;;;;3.63;1.50;;;4.10;83.50;;;4.34;69.54;96911.78;4948503;29;20057;-36
2021/01/28 04:44:12;;;;;;;2.20;1.50;;;4.10;83.40;;;4.34;69.88;96924.09;4948269;29;20052;-36
2021/01/28 04:46:54;;;;;;;;;;;4.10;83.40;;;4.29;69.71;96913.97;4932141;29;20345;-36
2021/01/28 04:49:52;;;;;;;1.80;1.20;;;4.10;83.40;;;4.33;69.75;96923.28;4951916;29;19923;-36
2021/01/28 04:52:40;;;;;;;3.03;1.80;;;4.10;83.50;;;4.35;69.79;96915.22;4964033;28;20048;-36
2021/01/28 04:55:48;;;;;;;3.00;1.80;;;4.10;83.50;;;4.35;69.77;96912.59;4945259;29;20051;-36
2021/01/28 04:58:17;;;;;;;2.77;1.80;;;4.10;83.60;;;4.37;69.31;96902.75;4946664;29;20335;-36
2021/01/28 05:00:58;;;;;;;3.33;1.57;;;4.10;83.40;;;4.36;69.58;96885.25;4946871;29;20055;-36
2021/01/28 05:03:50;;;;;;;3.50;1.57;;;4.10;83.50;;;4.36;69.72;96877.34;4946607;29;20082;-36
2021/01/28 05:06:37;;;;;;;2.73;1.90;;;4.10;83.60;;;4.37;69.27;96878.19;4963458;28;20054;-36
2021/01/28 05:09:23;;;;;;;1.77;1.33;;;4.10;83.60;;;4.39;69.45;96868.34;4950356;29;20053;-36
2021/01/28 05:12:22;;;;;;;3.70;1.50;;;4.10;83.60;;;4.40;69.54;96868.22;4947661;29;20071;-36
2021/01/28 05:15:13;;;;;;;3.93;2.13;;;4.20;83.70;;;4.42;69.56;96868.03;4950760;29;20050;-36
2021/01/28 05:18:20;;;;;;;3.30;1.73;;;4.20;83.60;;;4.43;69.37;96865.28;4948829;29;20050;-36
2021/01/28 05:21:18;;;;;;;2.23;1.50;;;4.20;83.60;;;4.44;69.21;96853.78;4947601;29;20059;-36
2021/01/28 05:24:29;;;;;;;1.80;1.30;;;4.20;83.70;;;4.44;69.45;96850.28;4946098;29;20349;-36
2021/01/28 05:27:29;;;;;;;3.30;1.90;;;4.20;83.70;;;4.44;69.81;96830.06;4937041;29;20059;-36
2021/01/28 05:30:04;;;;;;;3.33;2.00;;;4.20;83.70;;;4.45;69.72;96828.25;4942842;29;20047;-36
2021/01/28 05:32:44;;;;;;;3.10;1.55;;;4.20;83.70;;;4.45;69.53;96820.34;4972316;23;20049;-36
2021/01/28 05:35:33;;;;;;;3.27;2.00;;;4.20;84.50;;;4.46;69.46;96817.56;4965882;29;20055;-36
2021/01/28 05:38:16;;;;;;;4.17;2.30;;;4.20;83.70;;;4.46;69.26;96808.81;4965297;29;20055;-36
2021/01/28 05:41:00;;;;;;;2.97;2.07;;;4.10;83.80;;;4.42;69.49;96816.19;4965264;29;20054;-36
2021/01/28 05:43:44;;;;;;;3.43;2.50;;;4.10;84.00;;;4.41;69.33;96801.34;4949293;29;20047;-36
2021/01/28 05:46:30;;;;;;;3.87;2.40;;;4.20;84.20;;;4.41;69.71;96796.06;4949362;28;20189;-36
2021/01/28 05:49:21;;;;;;;3.93;2.13;;;4.10;84.20;;;4.41;69.40;96795.25;4967194;28;20065;-36
2021/01/28 05:51:52;;;;;;;5.10;3.10;;;4.10;84.50;;;4.40;69.88;96793.56;4966183;28;20054;-36
2021/01/28 05:54:34;;;;;;;5.00;3.47;;;4.10;84.30;;;4.41;69.51;96785.53;4964898;29;20047;-36
2021/01/28 05:57:35;;;;;;;5.33;3.10;;;4.20;84.30;;;4.43;69.89;96777.47;4965058;29;20047;-36
2021/01/28 06:00:16;;;;;;;5.43;3.43;;;4.10;84.30;;;4.43;69.85;96772.22;4964861;29;20051;-36
2021/01/28 06:03:43;;;;;;;5.93;3.33;;;4.10;84.30;;;4.41;70.36;96772.34;4946565;29;20251;-36
2021/01/28 06:07:02;;;;;;;8.43;4.10;;;4.20;84.40;;;4.41;70.06;96758.34;4967208;28;20057;-36
2021/01/28 06:10:38;;;;;;;6.20;3.70;;;4.10;84.30;;;4.40;69.48;96759.31;4965998;29;20047;-36
2021/01/28 06:13:41;;;;;;;7.87;3.87;;;4.10;84.70;;;4.36;70.13;96748.22;4945765;29;20061;-36
2021/01/28 06:17:04;;;;;;;8.10;4.10;;;4.10;85.10;;;4.38;69.79;96745.44;4965232;29;20237;-36
2021/01/28 06:20:05;;;;;;;5.83;3.67;;;4.10;85.00;;;4.40;70.13;96738.22;4965726;29;20051;-36
2021/01/28 06:22:51;;;;;;;9.43;5.03;;;4.20;85.00;;;4.38;70.20;96730.47;4948263;29;20047;-36
2021/01/28 06:25:50;;;;;;;6.50;4.03;;;4.10;84.90;;;4.39;70.06;96726.03;4965761;28;20398;-36
2021/01/28 06:28:57;;;;;;;8.33;4.17;;;4.20;85.30;;;4.40;69.67;96719.78;4963948;29;20055;-36
2021/01/28 06:31:24;;;;;;;6.20;3.77;;;4.20;85.30;;;4.41;69.77;96711.72;4965119;29;20055;-36
2021/01/28 06:35:06;;;;;;;9.53;5.20;;;4.20;85.40;;;4.45;69.89;96709.63;4964814;28;20146;-36
2021/01/28 06:38:24;;;;;;;13.57;7.37;;;4.20;85.50;;;4.47;69.81;96720.84;4966899;28;20347;-36
2021/01/28 06:40:57;;;;;;;7.00;4.30;;;4.20;85.40;;;4.46;70.58;96714.78;4969140;28;20063;-36
2021/01/28 06:44:23;;;;;;;7.47;4.18;;;4.20;85.50;;;4.47;70.15;96699.78;4964190;28;20055;-36
2021/01/28 06:47:58;;;;;;;5.40;3.87;;;4.20;85.60;;;4.48;70.20;96698.81;4925460;29;20052;-36
2021/01/28 06:50:38;;;;;;;5.93;3.63;;;4.30;85.70;;;4.50;69.77;96678.41;4888543;29;20091;-36
2021/01/28 06:53:16;;;;;;;7.70;5.47;;;4.30;85.40;;;4.50;69.86;96681.88;4923934;29;20062;-36
2021/01/28 06:56:29;;;;;;;6.38;3.97;;;4.30;85.30;;;4.52;70.20;96676.44;4967847;28;20046;-36
2021/01/28 07:00:07;;;;;;;6.20;3.60;;;4.30;85.20;;;4.53;70.05;96678.91;4964913;29;20051;-36
2021/01/28 07:03:04;;;;;;;11.63;7.70;;;4.30;85.20;;;4.54;69.97;96672.69;4961978;29;20047;-36
2021/01/28 07:06:00;;;;;;;22.57;12.40;;;4.30;85.00;;;4.53;69.89;96671.00;4947261;29;20051;-36
2021/01/28 07:09:10;;;;;;;9.73;6.40;;;4.30;84.80;;;4.54;70.17;96666.59;4950045;29;20057;-36
2021/01/28 07:12:00;;;;;;;10.43;8.17;;;4.30;84.90;;;4.56;69.90;96666.44;4947192;29;20047;-36
2021/01/28 07:14:51;;;;;;;20.57;13.13;;;4.30;84.70;;;4.57;70.14;96652.28;4945861;29;20055;-35
2021/01/28 07:18:03;;;;;;;17.10;11.77;;;4.30;85.50;;;4.55;69.70;96647.16;4964071;29;20047;-36
2021/01/28 07:20:55;;;;;;;11.53;8.03;;;4.30;84.70;;;4.54;70.10;96643.69;4964552;29;20252;-36
2021/01/28 07:23:27;;;;;;;10.60;7.70;;;4.30;84.70;;;4.51;69.82;96641.34;4947394;29;20065;-35
2021/01/28 07:26:18;;;;;;;11.18;7.15;;;4.20;84.80;;;4.50;70.03;96638.88;4963184;28;20051;-36
2021/01/28 07:28:48;;;;;;;10.40;7.40;;;4.20;85.00;;;4.49;69.75;96626.66;4978264;28;20061;-37
2021/01/28 07:31:24;;;;;;;9.70;5.57;;;4.20;85.00;;;4.48;69.86;96619.75;4978945;28;20370;-36
2021/01/28 07:33:58;;;;;;;13.97;8.87;;;4.20;85.10;;;4.46;69.90;96624.31;4964389;29;20050;-45
2021/01/28 07:37:22;;;;;;;12.07;7.77;;;4.10;85.30;;;4.45;69.62;96612.94;4953032;29;20051;-36
2021/01/28 07:40:09;;;;;;;9.50;5.20;;;4.20;85.70;;;4.43;70.12;96608.81;4966271;28;20236;-36
2021/01/28 07:43:04;;;;;;;9.53;5.77;;;4.10;85.70;;;4.43;70.52;96604.34;4933929;29;20047;-38
2021/01/28 07:45:38;;;;;;;4.77;3.53;;;4.20;86.20;;;4.46;70.29;96595.31;4967890;28;20057;-36
2021/01/28 07:48:28;;;;;;;8.33;5.30;;;4.10;85.90;;;4.49;70.50;96600.28;4965452;28;20053;-36
2021/01/28 07:51:37;;;;;;;7.30;3.47;;;4.20;85.90;;;4.50;70.11;96588.78;4963602;28;20240;-36
2021/01/28 07:54:22;;;;;;;6.78;3.78;;;4.20;86.20;;;4.50;70.59;96571.16;4964113;29;20047;-36
2021/01/28 07:56:57;;;;;;;5.40;3.20;;;4.30;86.30;;;4.52;70.15;96579.75;4961417;28;20057;-36
2021/01/28 07:59:55;;;;;;;7.90;4.70;;;4.20;86.00;;;4.54;70.02;96571.69;4963699;29;20047;-36
2021/01/28 08:02:29;;;;;;;6.47;4.23;;;4.30;86.20;;;4.58;70.43;96569.59;4962285;29;20053;-36
2021/01/28 08:05:00;;;;;;;;;;;4.30;86.00;;;4.55;69.80;96560.16;4963880;29;20054;-36
2021/01/28 08:07:36;;;;;;;6.83;3.67;;;4.30;86.50;;;4.58;70.27;96562.50;4963875;29;20134;-36
2021/01/28 08:10:25;;;;;;;7.80;3.87;;;4.30;86.00;;;4.58;69.79;96557.22;4963828;29;20057;-36
2021/01/28 08:13:23;;;;;;;7.03;4.20;;;4.30;86.30;;;4.58;70.05;96543.22;4963937;29;20047;-36
2021/01/28 08:16:00;;;;;;;7.30;3.90;;;4.30;86.50;;;4.57;70.27;96538.94;4958084;29;20368;-36
2021/01/28 08:18:43;;;;;;;6.30;3.77;;;4.20;86.30;;;4.57;70.02;96531.84;4963846;29;20047;-36
2021/01/28 08:21:21;;;;;;;5.15;3.38;;;4.30;86.60;;;4.61;70.06;96524.47;4963711;29;20047;-36
2021/01/28 08:23:50;;;;;;;7.53;4.63;;;4.40;86.50;;;4.63;70.59;96518.03;4962850;29;20051;-36
2021/01/28 08:26:32;;;;;;;10.73;6.17;;;4.40;86.30;;;4.66;70.58;96524.84;4963211;29;20115;-35
2021/01/28 08:29:21;;;;;;;8.17;4.07;;;4.40;86.50;;;4.67;70.69;96518.56;4963692;29;20047;-35
2021/01/28 08:31:55;;;;;;;8.67;4.60;;;4.40;86.50;;;4.67;70.83;96519.44;4962910;29;20047;-36
2021/01/28 08:34:28;;;;;;;6.90;4.22;;;4.40;86.30;;;4.67;70.63;96508.88;4977602;28;20371;-36
2021/01/28 08:37:14;;;;;;;6.30;3.23;;;4.40;86.20;;;4.69;70.41;96487.63;4941313;29;20230;-36
2021/01/28 08:39:53;;;;;;;6.90;3.70;;;4.40;86.40;;;4.69;70.27;96480.56;4963585;29;20055;-37
2021/01/28 08:42:23;;;;;;;4.80;3.47;;;4.50;86.60;;;4.71;70.79;96465.41;4963559;29;20051;-36
2021/01/28 08:45:17;;;;;;;5.63;3.27;;;4.50;86.40;;;4.74;70.80;96461.63;4963249;29;20055;-36
2021/01/28 08:48:05;;;;;;;6.10;3.55;;;4.50;86.60;;;4.72;71.17;96453.88;4946796;29;20057;-36
2021/01/28 08:50:34;;;;;;;6.00;3.40;;;4.50;86.90;;;4.74;70.56;96445.81;4947086;29;20051;-38
2021/01/28 08:53:06;;;;;;;5.70;3.00;;;4.50;86.80;;;4.76;71.09;96445.66;4946558;29;20050;-38
2021/01/28 08:55:38;;;;;;;5.53;3.20;;;4.60;86.50;;;4.77;71.05;96436.75;4963052;29;20061;-38
2021/01/28 08:58:16;;;;;;;5.33;2.80;;;4.60;86.60;;;4.78;70.59;96433.97;4962456;29;20065;-38
2021/01/28 09:00:51;;;;;;;4.73;3.10;;;4.60;86.70;;;4.80;71.02;96434.63;4945452;29;20055;-38
2021/01/28 09:03:30;;;;;;;6.33;3.50;;;4.60;86.60;;;4.82;71.20;96429.22;4947044;29;20047;-39
2021/01/28 09:06:02;;;;;;;7.23;3.40;;;4.70;86.90;;;4.85;71.65;96421.00;4947207;29;20053;-39
2021/01/28 09:08:37;;;;;;;5.97;3.63;;;4.70;86.80;;;4.87;70.73;96408.50;4948129;29;20051;-39
2021/01/28 09:11:26;;;;;;;4.60;2.97;;;4.70;86.70;;;4.88;71.10;96400.41;4966817;29;20051;-39
2021/01/28 09:14:28;;;;;;;6.33;2.50;;;4.70;86.70;;;4.93;71.05;96399.94;4949672;29;20077;-39
2021/01/28 09:17:00;;;;;;;5.27;2.80;;;4.80;86.90;;;4.92;71.21;96391.22;4966423;29;20078;-39
2021/01/28 09:19:33;;;;;;;6.13;2.50;;;4.80;86.90;;;4.94;71.32;96388.41;4966734;29;20061;-39
2021/01/28 09:22:05;;;;;;;3.97;2.43;;;4.80;86.70;;;4.99;71.27;96386.13;4950432;29;20047;-39
2021/01/28 09:24:48;;;;;;;4.43;2.60;;;4.90;86.80;;;5.03;71.29;96386.66;4958066;29;20055;-39
2021/01/28 09:27:21;;;;;;;4.87;2.67;;;4.90;86.70;;;5.04;71.30;96380.38;4964292;29;20051;-39
2021/01/28 09:29:51;;;;;;;4.22;2.38;;;5.00;86.60;;;5.07;71.48;96374.78;4965557;29;20057;-40
2021/01/28 09:32:18;;;;;;;4.40;2.27;;;5.00;86.50;;;5.09;71.22;96368.38;4965039;29;20264;-39
2021/01/28 09:35:01;;;;;;;4.77;2.40;;;5.00;86.60;;;5.12;71.07;96365.41;4962803;29;20057;-40
2021/01/28 09:37:29;;;;;;;5.10;2.30;;;5.00;86.60;;;5.13;71.21;96364.41;4963855;29;20051;-40
2021/01/28 09:39:57;;;;;;;4.53;2.10;;;5.00;86.50;;;5.16;71.26;96358.03;4931429;29;20051;-39
2021/01/28 09:42:33;;;;;;;3.70;2.20;;;5.00;86.60;;;5.17;70.90;96345.66;4965286;29;20379;-40
2021/01/28 09:45:10;;;;;;;4.40;2.40;;;5.10;86.90;;;5.18;71.17;96349.94;4964569;29;20055;-39
2021/01/28 09:47:48;;;;;;;4.10;2.07;;;5.10;87.10;;;5.19;71.26;96355.03;4964493;29;20256;-40
2021/01/28 09:50:15;;;;;;;4.30;1.90;;;5.10;87.40;;;5.23;71.26;96363.47;4964981;29;20061;-39
2021/01/28 09:52:47;;;;;;;4.33;2.83;;;5.10;86.80;;;5.24;71.24;96363.31;4965154;29;20049;-40
2021/01/28 09:55:21;;;;;;;4.17;2.23;;;5.10;87.00;;;5.26;71.89;96365.81;4963462;29;20065;-40
2021/01/28 09:57:51;;;;;;;3.57;1.87;;;5.10;87.10;;;5.27;71.18;96370.09;4965345;29;20051;-39
2021/01/28 10:00:24;;;;;;;2.97;1.90;;;5.10;87.30;;;5.31;71.58;96366.13;4965138;29;20043;-39
2021/01/28 10:03:01;;;;;;;3.10;1.50;;;5.20;87.30;;;5.31;71.90;96367.00;4961736;29;20059;-39
2021/01/28 10:05:32;;;;;;;3.00;1.67;;;5.20;87.60;;;5.35;71.84;96375.41;4963775;29;20050;-39
2021/01/28 10:08:01;;;;;;;3.30;1.73;;;5.30;87.80;;;5.37;71.91;96360.25;4965292;29;20047;-39
2021/01/28 10:10:33;;;;;;;2.77;1.97;;;5.30;87.80;;;5.41;71.59;96363.38;4964250;29;20054;-39
2021/01/28 10:13:04;;;;;;;4.63;1.70;;;5.30;87.90;;;5.43;71.87;96358.75;4963308;29;20051;-40
2021/01/28 10:15:32;;;;;;;3.00;1.73;;;5.40;87.80;;;5.43;71.79;96356.13;4962389;29;20047;-40
2021/01/28 10:17:59;;;;;;;2.13;1.50;;;5.40;88.00;;;5.47;72.51;96347.72;4964286;29;20057;-40
2021/01/28 10:20:28;;;;;;;3.93;1.30;;;5.40;88.50;;;5.48;72.24;96349.38;4963512;28;20061;-40
2021/01/28 10:23:01;;;;;;;3.27;1.77;;;5.50;88.30;;;5.55;71.95;96361.94;4963844;29;20341;-40
2021/01/28 10:25:30;;;;;;;3.20;1.67;;;5.50;88.30;;;5.58;72.43;96351.03;4963648;29;20047;-40
2021/01/28 10:27:58;;;;;;;2.40;1.40;;;5.60;88.30;;;5.60;72.52;96349.88;4964903;29;20073;-39
2021/01/28 10:30:26;;;;;;;2.53;1.50;;;5.60;88.80;;;5.62;71.95;96349.72;4965260;29;20051;-40
2021/01/28 10:32:56;;;;;;;2.70;1.63;;;5.60;88.50;;;5.64;71.93;96348.59;4964871;29;20036;-39
2021/01/28 10:35:29;;;;;;;3.20;1.30;;;5.60;88.40;;;5.69;71.85;96345.47;4965191;29;20353;-40
2021/01/28 10:38:01;;;;;;;2.30;1.50;;;5.70;88.70;;;5.69;72.18;96338.34;4965501;29;20055;-40
2021/01/28 10:40:29;;;;;;;1.97;1.30;;;5.70;88.80;;;5.72;73.05;96329.31;4965425;29;20047;-40
2021/01/28 10:43:02;;;;;;;2.50;1.57;;;5.70;89.00;;;5.75;72.72;96326.31;4965101;29;20050;-39
2021/01/28 10:45:35;;;;;;;2.30;1.40;;;5.70;88.80;;;5.80;72.71;96323.22;4964733;29;20055;-40
2021/01/28 10:48:04;;;;;;;1.70;1.10;;;5.80;89.20;;;5.84;71.89;96325.34;4965183;29;20055;-40
2021/01/28 10:50:34;;;;;;;2.53;1.30;;;5.90;89.70;;;5.89;72.17;96315.13;4965251;29;20047;-40
2021/01/28 10:53:02;;;;;;;2.70;1.73;;;5.90;89.10;;;5.97;72.68;96316.97;4964112;29;20055;-40
2021/01/28 10:55:32;;;;;;;1.37;0.80;;;6.00;89.70;;;6.02;73.03;96305.91;4963813;29;20059;-40
2021/01/28 10:58:00;;;;;;;2.83;1.27;;;6.10;89.90;;;6.06;72.67;96302.75;4963903;29;20043;-40
2021/01/28 11:00:30;;;;;;;1.57;1.03;;;6.20;89.40;;;6.12;72.74;96290.69;4964906;29;20063;-39
2021/01/28 11:02:58;;;;;;;1.97;1.00;;;6.20;89.40;;;6.17;72.39;96279.66;4962373;29;20062;-40
2021/01/28 11:05:33;;;;;;;1.20;0.90;;;6.30;89.10;;;6.21;72.96;96273.84;4964494;29;20057;-39
2021/01/28 11:08:01;;;;;;;1.30;1.10;;;6.30;89.10;;;6.25;72.74;96258.50;4964909;29;20252;-39
2021/01/28 11:10:29;;;;;;;1.30;0.90;;;6.40;88.90;;;6.29;72.61;96252.69;4963536;29;20146;-40
2021/01/28 11:12:59;;;;;;;1.23;0.83;;;6.40;89.10;;;6.31;72.57;96249.88;4947706;29;20053;-40
2021/01/28 11:15:36;;;;;;;1.47;0.90;;;6.40;88.90;;;6.31;72.90;96240.13;4964257;29;20043;-40
2021/01/28 11:18:10;;;;;;;1.63;0.80;;;6.40;89.30;;;6.35;73.05;96242.44;4963501;29;20077;-40
2021/01/28 11:20:38;;;;;;;1.90;1.20;;;6.40;89.10;;;6.36;72.48;96223.78;4964773;29;20218;-40
2021/01/28 11:23:06;;;;;;;1.37;0.70;;;6.40;89.30;;;6.38;73.06;96219.16;4964741;29;20067;-40
2021/01/28 11:25:34;;;;;;;1.23;0.90;;;6.40;89.40;;;6.41;73.53;96216.16;4964083;29;20051;-40
2021/01/28 11:28:02;;;;;;;2.07;1.30;;;6.50;89.50;;;6.48;73.40;96213.66;4964542;29;20233;-39
2021/01/28 11:30:33;;;;;;;2.27;1.10;;;6.60;89.50;;;6.56;73.41;96221.56;4964015;28;20059;-40